createdAt,value
2019-04-27T00:02:03.704Z,10.10
2019-04-27T00:04:35.069Z,10.10
2019-04-27T00:07:16.945Z,10.10
2019-04-27T00:09:51.269Z,10.10
2019-04-27T00:12:22.751Z,10.10
2019-04-27T00:14:54.459Z,10.10
2019-04-27T00:17:43.476Z,10.20
2019-04-27T00:20:15.083Z,10.20
2019-04-27T00:22:46.140Z,10.10
2019-04-27T00:25:15.583Z,10.10
2019-04-27T00:27:44.994Z,10.10
2019-04-27T00:30:14.428Z,10.10
2019-04-27T00:32:44.007Z,10.10
2019-04-27T00:35:14.996Z,10.20
2019-04-27T00:37:46.028Z,10.10
2019-04-27T00:40:17.020Z,10.10
2019-04-27T00:42:46.484Z,10.10
2019-04-27T00:45:15.891Z,10.30
2019-04-27T00:47:56.496Z,10.40
2019-04-27T00:50:16.519Z,10.30
2019-04-27T00:52:45.930Z,10.30
2019-04-27T00:55:15.259Z,10.30
2019-04-27T00:58:04.168Z,10.30
2019-04-27T01:00:35.294Z,10.40
2019-04-27T01:03:18.550Z,10.30
2019-04-27T01:05:47.930Z,10.30
2019-04-27T01:08:18.500Z,10.30
2019-04-27T01:10:48.031Z,10.30
2019-04-27T01:13:17.497Z,10.30
2019-04-27T01:15:46.882Z,10.30
2019-04-27T01:18:16.311Z,10.40
2019-04-27T01:20:45.673Z,10.30
2019-04-27T01:23:15.407Z,10.40
2019-04-27T01:25:46.473Z,10.40
2019-04-27T01:28:18.331Z,10.50
2019-04-27T01:30:53.012Z,10.50
2019-04-27T01:33:22.562Z,10.50
2019-04-27T01:35:51.916Z,10.40
2019-04-27T01:38:21.200Z,10.40
2019-04-27T01:40:50.579Z,10.50
2019-04-27T01:43:20.007Z,10.60
2019-04-27T01:45:49.448Z,10.60
2019-04-27T01:48:23.748Z,10.50
2019-04-27T01:50:50.423Z,10.50
2019-04-27T01:53:20.080Z,10.40
2019-04-27T01:55:49.575Z,10.40
2019-04-27T01:58:20.219Z,10.40
2019-04-27T02:00:52.435Z,10.50
2019-04-27T02:03:33.290Z,10.50
2019-04-27T02:06:01.020Z,10.50
2019-04-27T02:08:30.472Z,10.50
2019-04-27T02:10:59.878Z,10.50
2019-04-27T02:13:29.367Z,10.60
2019-04-27T02:15:59.022Z,10.50
2019-04-27T02:18:36.837Z,10.60
2019-04-27T02:20:59.455Z,10.60
2019-04-27T02:23:30.463Z,10.60
2019-04-27T02:25:59.905Z,10.60
2019-04-27T02:28:30.954Z,10.60
2019-04-27T02:31:02.179Z,10.60
2019-04-27T02:33:33.295Z,10.60
2019-04-27T02:36:02.758Z,10.60
2019-04-27T02:38:32.123Z,10.50
2019-04-27T02:41:01.554Z,10.40
2019-04-27T02:43:35.686Z,10.30
2019-04-27T02:46:05.110Z,10.30
2019-04-27T02:48:51.969Z,10.20
2019-04-27T02:51:09.925Z,10.30
2019-04-27T02:53:54.972Z,10.30
2019-04-27T02:56:24.775Z,10.30
2019-04-27T02:58:54.390Z,10.20
2019-04-27T03:01:25.503Z,10.20
2019-04-27T03:03:54.925Z,10.20
2019-04-27T03:06:24.377Z,10.10
2019-04-27T03:08:54.388Z,10.20
2019-04-27T03:11:24.763Z,10.20
2019-04-27T03:14:28.443Z,10.40
2019-04-27T03:16:46.758Z,10.30
2019-04-27T03:19:36.072Z,10.30
2019-04-27T03:22:09.447Z,10.30
2019-04-27T03:24:56.270Z,10.20
2019-04-27T03:27:27.357Z,10.10
2019-04-27T03:29:56.816Z,10.00
2019-04-27T03:32:26.174Z,10.00
2019-04-27T03:34:55.524Z,10.00
2019-04-27T03:37:24.992Z,10.00
2019-04-27T03:39:54.349Z,10.10
2019-04-27T03:42:23.758Z,10.10
2019-04-27T03:44:53.384Z,10.10
2019-04-27T03:47:22.688Z,10.10
2019-04-27T03:49:52.087Z,10.00
2019-04-27T03:52:25.945Z,10.00
2019-04-27T03:55:03.109Z,9.90
2019-04-27T03:57:34.168Z,9.90
2019-04-27T04:00:09.912Z,9.90
2019-04-27T04:02:40.441Z,9.90
2019-04-27T04:05:09.806Z,9.90
2019-04-27T04:07:40.416Z,10.00
2019-04-27T04:10:10.717Z,10.00
2019-04-27T04:12:49.869Z,10.00
2019-04-27T04:15:20.689Z,10.10
2019-04-27T04:17:50.192Z,10.10
2019-04-27T04:20:20.192Z,10.10
2019-04-27T04:22:51.445Z,10.00
2019-04-27T04:25:21.155Z,9.90
2019-04-27T04:27:50.887Z,9.90
2019-04-27T04:30:20.376Z,9.70
2019-04-27T04:32:51.966Z,9.50
2019-04-27T04:35:39.911Z,9.40
2019-04-27T04:38:10.389Z,9.40
2019-04-27T04:40:41.681Z,9.40
2019-04-27T04:43:15.729Z,9.30
2019-04-27T04:46:04.947Z,9.10
2019-04-27T04:48:34.233Z,9.10
2019-04-27T04:51:03.650Z,9.20
2019-04-27T04:53:32.968Z,9.20
2019-04-27T04:56:02.543Z,9.20
2019-04-27T04:58:31.915Z,9.00
2019-04-27T05:01:01.892Z,9.00
2019-04-27T05:03:33.321Z,9.10
2019-04-27T05:06:03.739Z,9.00
2019-04-27T05:08:33.188Z,9.10
2019-04-27T05:11:02.649Z,8.90
2019-04-27T05:13:31.994Z,8.90
2019-04-27T05:16:01.355Z,8.80
2019-04-27T05:18:30.825Z,9.00
2019-04-27T05:21:05.412Z,9.00
2019-04-27T05:23:36.470Z,9.00
2019-04-27T05:26:07.018Z,9.00
2019-04-27T05:28:36.315Z,9.00
2019-04-27T05:31:05.755Z,9.00
2019-04-27T05:33:35.223Z,9.10
2019-04-27T05:36:04.700Z,9.20
2019-04-27T05:38:34.122Z,9.20
2019-04-27T05:41:03.556Z,9.30
2019-04-27T05:43:38.841Z,9.40
2019-04-27T05:46:39.812Z,9.40
2019-04-27T05:49:10.968Z,9.40
2019-04-27T05:51:41.986Z,9.50
2019-04-27T05:54:11.483Z,9.50
2019-04-27T05:56:40.921Z,9.70
2019-04-27T05:59:10.252Z,9.80
2019-04-27T06:01:39.681Z,9.80
2019-04-27T06:04:09.332Z,9.80
2019-04-27T06:06:39.877Z,9.80
2019-04-27T06:09:09.685Z,9.90
2019-04-27T06:11:39.974Z,10.10
2019-04-27T06:14:09.845Z,10.20
2019-04-27T06:16:39.763Z,10.10
2019-04-27T06:19:09.590Z,10.20
2019-04-27T06:21:40.145Z,10.30
2019-04-27T06:24:09.775Z,10.40
2019-04-27T06:26:39.934Z,10.50
2019-04-27T06:29:09.670Z,10.40
2019-04-27T06:31:39.630Z,10.50
2019-04-27T06:34:09.816Z,10.60
2019-04-27T06:36:39.449Z,10.70
2019-04-27T06:39:09.762Z,10.70
2019-04-27T06:41:40.167Z,10.70
2019-04-27T06:44:11.492Z,10.50
2019-04-27T06:46:40.749Z,10.50
2019-04-27T06:49:11.082Z,10.50
2019-04-27T06:51:40.804Z,10.50
2019-04-27T06:54:10.330Z,10.50
2019-04-27T06:56:39.707Z,10.60
2019-04-27T06:59:09.147Z,10.40
2019-04-27T07:01:39.130Z,10.50
2019-04-27T07:04:10.555Z,10.50
2019-04-27T07:06:52.838Z,10.50
2019-04-27T07:09:10.872Z,10.50
2019-04-27T07:11:40.257Z,10.40
2019-04-27T07:14:11.539Z,10.40
2019-04-27T07:16:40.622Z,10.50
2019-04-27T07:19:09.882Z,10.40
2019-04-27T07:21:41.135Z,10.60
2019-04-27T07:24:10.496Z,10.40
2019-04-27T07:26:39.953Z,10.40
2019-04-27T07:29:09.668Z,10.60
2019-04-27T07:31:40.429Z,10.80
2019-04-27T07:34:09.815Z,10.90
2019-04-27T07:36:39.470Z,10.90
2019-04-27T07:39:11.030Z,11.20
2019-04-27T07:41:40.236Z,11.30
2019-04-27T07:44:19.289Z,11.40
2019-04-27T07:46:50.121Z,11.30
2019-04-27T07:49:19.548Z,11.30
2019-04-27T07:51:49.046Z,11.50
2019-04-27T07:54:18.948Z,11.30
2019-04-27T07:56:48.823Z,11.20
2019-04-27T07:59:18.862Z,11.30
2019-04-27T08:01:49.278Z,11.30
2019-04-27T08:04:18.878Z,11.60
2019-04-27T08:06:49.646Z,12.10
2019-04-27T08:09:19.194Z,12.30
2019-04-27T08:11:48.894Z,12.00
2019-04-27T08:14:18.634Z,12.30
2019-04-27T08:16:48.681Z,12.50
2019-04-27T08:19:19.644Z,12.60
2019-04-27T08:21:49.879Z,12.50
2019-04-27T08:24:19.529Z,12.30
2019-04-27T08:27:06.796Z,12.30
2019-04-27T08:29:55.859Z,12.40
2019-04-27T08:32:33.697Z,12.30
2019-04-27T08:35:03.695Z,12.40
2019-04-27T08:37:33.138Z,12.30
2019-04-27T08:40:02.839Z,12.50
2019-04-27T08:42:33.214Z,12.30
2019-04-27T08:45:02.571Z,12.30
2019-04-27T08:47:32.496Z,12.50
2019-04-27T08:50:01.866Z,12.30
2019-04-27T08:52:32.341Z,12.40
2019-04-27T08:55:01.683Z,12.30
2019-04-27T08:57:31.277Z,12.00
2019-04-27T09:00:00.694Z,12.00
2019-04-27T09:02:41.566Z,11.60
2019-04-27T09:05:00.958Z,11.20
2019-04-27T09:07:39.785Z,10.90
2019-04-27T09:10:18.777Z,10.90
2019-04-27T09:12:53.518Z,11.10
2019-04-27T09:15:23.743Z,11.10
2019-04-27T09:17:58.763Z,11.10
2019-04-27T09:20:39.097Z,11.20
2019-04-27T09:23:09.938Z,11.10
2019-04-27T09:25:39.703Z,11.30
2019-04-27T09:28:10.287Z,11.30
2019-04-27T09:30:39.813Z,11.40
2019-04-27T09:33:09.255Z,11.70
2019-04-27T09:35:38.612Z,12.00
2019-04-27T09:38:08.168Z,12.00
2019-04-27T09:40:37.541Z,12.00
2019-04-27T09:43:07.520Z,12.00
2019-04-27T09:45:37.250Z,12.00
2019-04-27T09:48:07.938Z,12.00
2019-04-27T09:50:37.339Z,11.90
2019-04-27T09:53:06.687Z,12.00
2019-04-27T09:55:36.867Z,12.10
2019-04-27T09:58:07.459Z,12.20
2019-04-27T10:00:37.052Z,12.20
2019-04-27T10:03:06.781Z,12.30
2019-04-27T10:05:36.825Z,12.20
2019-04-27T10:08:06.384Z,12.00
2019-04-27T10:10:37.223Z,12.40
2019-04-27T10:13:07.807Z,12.40
2019-04-27T10:15:37.295Z,12.40
2019-04-27T10:18:06.688Z,12.30
2019-04-27T10:20:40.425Z,12.30
2019-04-27T10:23:07.199Z,12.40
2019-04-27T10:25:37.546Z,12.40
2019-04-27T10:28:07.035Z,12.30
2019-04-27T10:30:36.434Z,12.50
2019-04-27T10:33:08.076Z,12.80
2019-04-27T10:35:36.781Z,12.80
2019-04-27T10:38:07.283Z,13.00
2019-04-27T10:40:36.572Z,13.20
2019-04-27T10:43:06.375Z,13.00
2019-04-27T10:45:37.694Z,12.90
2019-04-27T10:48:06.822Z,12.60
2019-04-27T10:50:36.656Z,12.60
2019-04-27T10:53:07.068Z,12.50
2019-04-27T10:55:36.517Z,12.60
2019-04-27T10:58:05.851Z,12.40
2019-04-27T11:00:48.739Z,12.30
2019-04-27T11:03:19.724Z,12.40
2019-04-27T11:06:07.153Z,12.30
2019-04-27T11:08:36.563Z,12.30
2019-04-27T11:11:05.971Z,12.30
2019-04-27T11:13:36.221Z,12.30
2019-04-27T11:16:06.398Z,12.20
2019-04-27T11:18:36.073Z,12.20
2019-04-27T11:21:05.832Z,12.30
2019-04-27T11:23:35.910Z,12.70
2019-04-27T11:26:07.385Z,12.90
2019-04-27T11:28:36.477Z,13.20
2019-04-27T11:31:06.143Z,13.80
2019-04-27T11:33:36.376Z,14.00
2019-04-27T11:36:19.677Z,13.70
2019-04-27T11:38:56.984Z,13.80
2019-04-27T11:41:26.386Z,13.80
2019-04-27T11:43:56.513Z,13.90
2019-04-27T11:46:27.324Z,13.70
2019-04-27T11:48:58.407Z,13.40
2019-04-27T11:51:27.916Z,13.40
2019-04-27T11:53:57.342Z,13.30
2019-04-27T11:56:27.414Z,13.30
2019-04-27T11:58:56.990Z,13.20
2019-04-27T12:01:27.033Z,13.20
2019-04-27T12:03:57.623Z,13.10
2019-04-27T12:06:27.034Z,12.80
2019-04-27T12:08:56.374Z,12.90
2019-04-27T12:11:27.258Z,13.10
2019-04-27T12:13:56.689Z,13.10
2019-04-27T12:16:26.296Z,12.70
2019-04-27T12:18:56.356Z,12.80
2019-04-27T12:21:25.923Z,12.80
2019-04-27T12:23:55.321Z,13.10
2019-04-27T12:26:29.088Z,13.30
2019-04-27T12:29:00.527Z,13.90
2019-04-27T12:31:31.547Z,15.40
2019-04-27T12:34:00.912Z,17.40
2019-04-27T12:36:31.394Z,19.00
2019-04-27T12:39:00.836Z,17.40
2019-04-27T12:41:31.599Z,17.20
2019-04-27T12:44:01.015Z,17.00
2019-04-27T12:46:30.380Z,17.20
2019-04-27T12:48:59.772Z,17.00
2019-04-27T12:51:29.175Z,16.30
2019-04-27T12:54:02.898Z,16.00
2019-04-27T12:56:46.043Z,16.20
2019-04-27T12:59:17.083Z,16.20
2019-04-27T13:01:46.512Z,18.00
2019-04-27T13:04:17.123Z,21.10
2019-04-27T13:06:47.048Z,21.60
2019-04-27T13:09:17.340Z,23.80
2019-04-27T13:11:49.741Z,24.20
2019-04-27T13:14:19.081Z,23.40
2019-04-27T13:16:48.448Z,20.40
2019-04-27T13:19:18.971Z,19.50
2019-04-27T13:21:48.344Z,19.10
2019-04-27T13:24:17.768Z,19.10
2019-04-27T13:26:47.184Z,19.30
2019-04-27T13:29:16.771Z,21.20
2019-04-27T13:31:48.736Z,22.80
2019-04-27T13:34:18.075Z,24.30
2019-04-27T13:36:47.552Z,24.00
2019-04-27T13:39:16.986Z,24.30
2019-04-27T13:41:56.160Z,24.70
2019-04-27T13:44:27.041Z,24.10
2019-04-27T13:47:14.291Z,24.00
2019-04-27T13:49:51.036Z,24.00
2019-04-27T13:52:22.239Z,23.90
2019-04-27T13:54:51.518Z,24.50
2019-04-27T13:57:20.855Z,23.80
2019-04-27T13:59:51.621Z,25.40
2019-04-27T14:02:23.600Z,26.80
2019-04-27T14:04:52.207Z,25.90
2019-04-27T14:07:21.573Z,25.10
2019-04-27T14:09:53.288Z,23.90
2019-04-27T14:12:22.437Z,22.80
2019-04-27T14:14:51.743Z,23.00
2019-04-27T14:17:21.163Z,22.30
2019-04-27T14:19:50.730Z,21.20
2019-04-27T14:22:24.879Z,20.80
2019-04-27T14:24:54.287Z,19.80
2019-04-27T14:27:25.315Z,19.40
2019-04-27T14:29:57.032Z,18.70
2019-04-27T14:32:25.606Z,18.90
2019-04-27T14:34:54.958Z,18.80
2019-04-27T14:37:24.603Z,18.20
2019-04-27T14:39:54.047Z,18.10
2019-04-27T14:42:24.566Z,18.00
2019-04-27T14:44:53.929Z,17.90
2019-04-27T14:47:23.372Z,17.40
2019-04-27T14:49:53.726Z,17.30
2019-04-27T14:52:23.098Z,16.90
2019-04-27T14:54:52.505Z,16.90
2019-04-27T14:57:21.847Z,17.10
2019-04-27T14:59:54.253Z,17.70
2019-04-27T15:02:23.719Z,18.60
2019-04-27T15:04:54.011Z,20.70
2019-04-27T15:07:25.037Z,20.90
2019-04-27T15:09:57.474Z,20.40
2019-04-27T15:12:30.742Z,21.00
2019-04-27T15:14:57.453Z,22.20
2019-04-27T15:17:29.431Z,25.70
2019-04-27T15:20:18.124Z,26.00
2019-04-27T15:22:52.536Z,24.80
2019-04-27T15:25:20.262Z,22.70
2019-04-27T15:27:55.041Z,22.70
2019-04-27T15:30:26.018Z,22.40
2019-04-27T15:32:57.133Z,21.60
2019-04-27T15:35:30.886Z,22.90
2019-04-27T15:38:05.055Z,24.60
2019-04-27T15:40:43.988Z,24.60
2019-04-27T15:43:15.903Z,26.80
2019-04-27T15:45:45.309Z,26.70
2019-04-27T15:48:14.659Z,26.80
2019-04-27T15:50:44.052Z,27.00
2019-04-27T15:53:13.487Z,27.90
2019-04-27T15:55:42.912Z,26.40
2019-04-27T15:58:12.299Z,25.60
2019-04-27T16:00:41.786Z,26.20
2019-04-27T16:03:11.214Z,25.80
2019-04-27T16:05:40.583Z,25.50
2019-04-27T16:08:15.244Z,25.80
2019-04-27T16:10:40.888Z,26.00
2019-04-27T16:13:14.975Z,25.90
2019-04-27T16:15:41.560Z,25.60
2019-04-27T16:18:10.994Z,25.30
2019-04-27T16:20:40.427Z,26.00
2019-04-27T16:23:09.967Z,26.20
2019-04-27T16:25:48.416Z,25.80
2019-04-27T16:28:13.362Z,27.70
2019-04-27T16:30:45.800Z,26.20
2019-04-27T16:33:15.488Z,25.10
2019-04-27T16:35:44.728Z,25.50
2019-04-27T16:38:22.377Z,25.20
2019-04-27T16:40:54.753Z,24.50
2019-04-27T16:43:23.846Z,25.20
2019-04-27T16:45:57.936Z,24.10
2019-04-27T16:48:28.060Z,21.90
2019-04-27T16:50:59.276Z,21.10
2019-04-27T16:53:30.150Z,20.10
2019-04-27T16:56:14.139Z,19.40
2019-04-27T16:58:39.454Z,19.10
2019-04-27T17:01:12.688Z,18.80
2019-04-27T17:03:42.380Z,18.80
2019-04-27T17:06:12.840Z,18.50
2019-04-27T17:08:42.257Z,18.40
2019-04-27T17:11:13.827Z,18.10
2019-04-27T17:13:48.403Z,18.30
2019-04-27T17:16:19.457Z,18.30
2019-04-27T17:18:52.894Z,17.80
2019-04-27T17:21:23.322Z,17.70
2019-04-27T17:23:56.990Z,17.60
2019-04-27T17:26:24.487Z,17.20
2019-04-27T17:28:59.193Z,17.10
2019-04-27T17:31:30.347Z,17.20
2019-04-27T17:34:01.385Z,17.20
2019-04-27T17:36:30.807Z,16.80
2019-04-27T17:39:00.169Z,16.50
2019-04-27T17:41:29.546Z,16.30
2019-04-27T17:43:59.160Z,16.10
2019-04-27T17:46:28.648Z,16.20
2019-04-27T17:48:58.526Z,15.90
2019-04-27T17:51:30.964Z,16.00
2019-04-27T17:54:02.920Z,15.70
2019-04-27T17:56:35.939Z,15.70
2019-04-27T17:59:03.315Z,15.50
2019-04-27T18:01:32.791Z,15.30
2019-04-27T18:04:03.110Z,15.20
2019-04-27T18:06:32.759Z,15.10
2019-04-27T18:09:03.404Z,15.00
2019-04-27T18:11:37.332Z,14.80
2019-04-27T18:14:05.684Z,14.80
2019-04-27T18:16:37.976Z,14.70
2019-04-27T18:19:11.696Z,14.50
2019-04-27T18:21:41.510Z,14.50
2019-04-27T18:24:15.315Z,14.50
2019-04-27T18:26:50.044Z,14.40
2019-04-27T18:29:18.486Z,14.30
2019-04-27T18:31:53.365Z,14.10
2019-04-27T18:34:19.144Z,14.00
2019-04-27T18:36:49.756Z,13.90
2019-04-27T18:39:19.049Z,13.80
2019-04-27T18:41:50.650Z,13.90
2019-04-27T18:44:19.373Z,13.70
2019-04-27T18:46:53.603Z,13.60
2019-04-27T18:49:39.369Z,13.50
2019-04-27T18:55:09.227Z,13.30
2019-04-27T18:57:38.688Z,13.00
2019-04-27T19:00:08.843Z,13.00
2019-04-27T19:02:39.512Z,13.10
2019-04-27T19:05:08.966Z,13.00
2019-04-27T19:07:38.441Z,13.20
2019-04-27T19:10:08.956Z,13.00
2019-04-27T19:12:39.426Z,12.90
2019-04-27T19:15:09.013Z,12.90
2019-04-27T19:17:38.792Z,12.90
2019-04-27T19:20:10.452Z,12.80
2019-04-27T19:22:39.677Z,12.80
2019-04-27T19:25:10.627Z,12.80
2019-04-27T19:27:58.229Z,12.70
2019-04-27T19:30:47.712Z,12.60
2019-04-27T19:33:18.126Z,12.60
2019-04-27T19:35:48.144Z,12.70
2019-04-27T19:38:18.582Z,12.50
2019-04-27T19:41:01.646Z,12.50
2019-04-27T19:43:31.139Z,12.50
2019-04-27T19:46:00.457Z,12.50
2019-04-27T19:48:29.866Z,12.60
2019-04-27T19:51:00.218Z,12.50
2019-04-27T19:53:29.667Z,12.60
2019-04-27T19:56:02.146Z,12.60
2019-04-27T19:58:33.630Z,12.80
2019-04-27T20:01:14.233Z,12.90
2019-04-27T20:03:42.855Z,12.50
2019-04-27T20:06:12.478Z,12.50
2019-04-27T20:08:48.996Z,12.40
2019-04-27T20:11:18.571Z,12.30
2019-04-27T20:13:48.698Z,12.20
2019-04-27T20:16:17.999Z,12.20
2019-04-27T20:18:47.394Z,12.20
2019-04-27T20:21:16.814Z,12.10
2019-04-27T20:23:46.141Z,12.10
2019-04-27T20:26:15.629Z,12.10
2019-04-27T20:28:45.049Z,12.00
2019-04-27T20:31:15.646Z,11.90
2019-04-27T20:33:45.032Z,11.80
2019-04-27T20:36:15.886Z,11.80
2019-04-27T20:38:45.207Z,11.80
2019-04-27T20:41:14.559Z,12.00
2019-04-27T20:43:44.869Z,12.00
2019-04-27T20:46:14.267Z,11.90
2019-04-27T20:48:43.680Z,11.80
2019-04-27T20:51:13.056Z,11.70
2019-04-27T20:53:47.017Z,11.60
2019-04-27T20:56:16.521Z,11.60
2019-04-27T20:58:45.892Z,11.50
2019-04-27T21:01:15.336Z,11.40
2019-04-27T21:03:51.061Z,11.40
2019-04-27T21:06:25.043Z,11.40
2019-04-27T21:08:54.548Z,11.30
2019-04-27T21:11:23.921Z,11.30
2019-04-27T21:13:53.629Z,11.30
2019-04-27T21:16:24.663Z,11.30
2019-04-27T21:18:54.102Z,11.30
2019-04-27T21:21:23.819Z,11.30
2019-04-27T21:23:53.310Z,11.30
2019-04-27T21:26:23.309Z,11.30
2019-04-27T21:28:53.093Z,11.30
2019-04-27T21:31:22.549Z,11.30
2019-04-27T21:33:52.241Z,11.40
2019-04-27T21:36:27.185Z,11.40
2019-04-27T21:38:58.174Z,11.30
2019-04-27T21:41:31.101Z,10.90
2019-04-27T21:44:02.083Z,11.00
2019-04-27T21:46:35.193Z,11.20
2019-04-27T21:49:04.595Z,11.10
2019-04-27T21:51:36.738Z,10.40
2019-04-27T21:54:19.845Z,10.00
2019-04-27T21:56:52.351Z,9.90
2019-04-27T21:59:21.849Z,9.90
2019-04-27T22:01:55.472Z,9.90
2019-04-27T22:04:24.577Z,10.00
2019-04-27T22:07:01.405Z,10.00
2019-04-27T22:09:31.108Z,10.10
2019-04-27T22:12:03.538Z,9.90
2019-04-27T22:14:37.050Z,9.80
2019-04-27T22:17:06.467Z,9.80
2019-04-27T22:19:35.848Z,9.80
2019-04-27T22:22:07.248Z,9.80
2019-04-27T22:24:38.224Z,9.80
2019-04-27T22:27:07.673Z,9.80
2019-04-27T22:29:37.136Z,9.80
2019-04-27T22:32:06.567Z,9.80
2019-04-27T22:34:35.927Z,9.90
2019-04-27T22:37:06.393Z,9.90
2019-04-27T22:39:46.376Z,9.90
2019-04-27T22:42:31.205Z,9.80
2019-04-27T22:45:02.035Z,10.00
2019-04-27T22:47:31.792Z,10.20
2019-04-27T22:50:02.331Z,10.10
2019-04-27T22:52:31.757Z,10.20
2019-04-27T22:55:01.662Z,10.20
2019-04-27T22:57:32.734Z,10.20
2019-04-27T23:00:03.917Z,10.20
2019-04-27T23:02:36.500Z,10.20
2019-04-27T23:05:06.048Z,10.20
2019-04-27T23:07:35.414Z,10.10
2019-04-27T23:10:06.856Z,10.10
2019-04-27T23:12:36.308Z,10.10
2019-04-27T23:15:08.396Z,9.90
2019-04-27T23:17:45.156Z,9.90
2019-04-27T23:20:14.531Z,9.80
2019-04-27T23:22:43.976Z,9.70
2019-04-27T23:25:13.445Z,9.70
2019-04-27T23:27:42.819Z,9.60
2019-04-27T23:30:12.574Z,9.50
2019-04-27T23:32:52.346Z,9.50
2019-04-27T23:35:21.710Z,9.50
2019-04-27T23:37:52.884Z,9.50
2019-04-27T23:40:22.075Z,9.30
2019-04-27T23:42:52.526Z,9.30
2019-04-27T23:45:22.457Z,9.30
2019-04-27T23:47:51.923Z,9.30
2019-04-27T23:50:21.922Z,9.30
2019-04-27T23:52:59.249Z,9.20
2019-04-27T23:55:36.837Z,9.20
2019-04-27T23:58:06.271Z,9.20
